createdAt,value
2018-04-07T00:00:12.408Z,39.54
2018-04-07T00:04:11.878Z,39.79
2018-04-07T00:08:13.219Z,40.04
2018-04-07T00:10:13.914Z,40.11
2018-04-07T00:11:14.179Z,40.15
2018-04-07T00:12:15.874Z,40.21
2018-04-07T00:16:17.162Z,40.23
2018-04-07T00:21:25.193Z,40.43
2018-04-07T00:23:20.419Z,40.39
2018-04-07T00:29:22.715Z,40.29
2018-04-07T00:31:24.880Z,40.28
2018-04-07T00:32:25.355Z,40.31
2018-04-07T00:36:26.646Z,40.38
2018-04-07T00:38:26.788Z,40.44
2018-04-07T00:39:29.080Z,40.38
2018-04-07T00:48:39.002Z,39.92
2018-04-07T00:54:49.582Z,40.14
2018-04-07T01:00:59.289Z,40.22
2018-04-07T01:21:01.354Z,40.92
2018-04-07T01:35:08.933Z,41.60
2018-04-07T01:37:08.527Z,41.53
2018-04-07T01:40:10.853Z,41.63
2018-04-07T01:41:14.241Z,41.68
2018-04-07T01:42:12.571Z,41.69
2018-04-07T01:43:11.578Z,41.70
2018-04-07T01:48:17.791Z,41.89
2018-04-07T01:49:14.624Z,41.91
2018-04-07T01:50:16.288Z,41.96
2018-04-07T01:53:16.455Z,42.12
2018-04-07T01:56:20.143Z,42.12
2018-04-07T01:58:31.492Z,42.13
2018-04-07T01:59:18.995Z,42.23
2018-04-07T02:00:21.860Z,42.22
2018-04-07T02:02:31.859Z,42.31
2018-04-07T02:03:21.454Z,42.44
2018-04-07T02:06:22.817Z,42.46
2018-04-07T02:07:23.388Z,42.40
2018-04-07T02:09:24.102Z,42.39
2018-04-07T02:11:25.453Z,42.49
2018-04-07T02:12:25.325Z,42.50
2018-04-07T02:15:26.946Z,42.60
2018-04-07T02:22:30.883Z,42.77
2018-04-07T02:23:30.940Z,42.85
2018-04-07T02:24:31.008Z,42.87
2018-04-07T02:28:34.116Z,42.90
2018-04-07T02:29:33.176Z,42.87
2018-04-07T02:30:33.990Z,42.82
2018-04-07T02:31:34.328Z,42.85
2018-04-07T02:32:36.063Z,42.90
2018-04-07T02:34:36.556Z,42.94
2018-04-07T02:35:36.303Z,42.93
2018-04-07T02:37:49.902Z,42.89
2018-04-07T02:38:37.441Z,42.86
2018-04-07T02:39:40.546Z,42.90
2018-04-07T02:40:38.796Z,42.90
2018-04-07T02:42:41.147Z,42.99
2018-04-07T02:45:41.164Z,43.05
2018-04-07T02:46:41.434Z,43.06
2018-04-07T02:48:42.184Z,43.13
2018-04-07T02:49:43.263Z,43.17
2018-04-07T02:51:44.212Z,43.19
2018-04-07T02:52:44.482Z,43.23
2018-04-07T02:53:44.551Z,43.26
2018-04-07T02:55:45.835Z,43.33
2018-04-07T02:57:47.253Z,43.45
2018-04-07T02:58:47.124Z,43.52
2018-04-07T03:00:48.475Z,43.53
2018-04-07T03:06:51.321Z,43.68
2018-04-07T03:08:51.658Z,43.76
2018-04-07T03:09:52.132Z,43.77
2018-04-07T03:10:52.605Z,43.74
2018-04-07T03:11:53.079Z,43.76
2018-04-07T03:13:54.028Z,43.76
2018-04-07T03:14:54.900Z,43.79
2018-04-07T03:17:56.131Z,43.78
2018-04-07T03:20:58.540Z,43.85
2018-04-07T03:21:58.020Z,43.86
2018-04-07T03:23:59.104Z,43.85
2018-04-07T03:25:00.857Z,43.86
2018-04-07T03:26:00.524Z,43.88
2018-04-07T03:28:03.694Z,43.91
2018-04-07T03:29:01.542Z,43.93
2018-04-07T03:30:01.606Z,43.95
2018-04-07T03:32:02.759Z,43.97
2018-04-07T03:33:03.430Z,43.96
2018-04-07T03:34:03.908Z,44.01
2018-04-07T03:35:04.183Z,44.05
2018-04-07T03:37:04.926Z,44.05
2018-04-07T03:39:05.922Z,44.14
2018-04-07T03:42:07.700Z,44.19
2018-04-07T03:43:08.173Z,44.21
2018-04-07T03:44:11.730Z,44.22
2018-04-07T03:46:09.393Z,44.25
2018-04-07T03:47:09.663Z,44.28
2018-04-07T03:51:11.966Z,44.34
2018-04-07T03:54:24.820Z,44.32
2018-04-07T03:56:13.927Z,44.33
2018-04-07T03:57:14.603Z,44.33
2018-04-07T04:00:15.822Z,44.38
2018-04-07T04:01:16.291Z,44.40
2018-04-07T04:02:16.968Z,44.42
2018-04-07T04:06:19.272Z,44.47
2018-04-07T04:07:19.543Z,44.49
2018-04-07T04:09:20.288Z,44.48
2018-04-07T04:10:21.168Z,44.47
2018-04-07T04:13:21.982Z,44.42
2018-04-07T04:14:35.849Z,44.44
2018-04-07T04:15:23.330Z,44.41
2018-04-07T04:16:23.606Z,44.46
2018-04-07T04:17:25.293Z,44.48
2018-04-07T04:18:24.554Z,44.46
2018-04-07T04:19:24.823Z,44.46
2018-04-07T04:22:26.647Z,44.49
2018-04-07T04:25:29.061Z,44.47
2018-04-07T04:26:28.548Z,44.49
2018-04-07T04:27:28.613Z,44.51
2018-04-07T04:29:30.171Z,44.54
2018-04-07T04:32:31.182Z,44.54
2018-04-07T04:33:31.661Z,44.58
2018-04-07T04:35:45.048Z,44.65
2018-04-07T04:36:33.283Z,44.65
2018-04-07T04:37:33.347Z,44.66
2018-04-07T04:40:36.441Z,44.70
2018-04-07T04:41:35.652Z,44.73
2018-04-07T04:42:35.721Z,44.75
2018-04-07T04:43:36.397Z,44.76
2018-04-07T04:44:36.671Z,44.79
2018-04-07T04:45:37.144Z,44.78
2018-04-07T04:46:38.021Z,44.81
2018-04-07T04:47:38.294Z,44.84
2018-04-07T04:49:39.439Z,44.90
2018-04-07T04:51:40.190Z,44.88
2018-04-07T04:52:41.875Z,44.89
2018-04-07T04:53:40.930Z,44.93
2018-04-07T04:58:43.704Z,44.99
2018-04-07T04:59:43.777Z,45.02
2018-04-07T05:00:44.454Z,45.03
2018-04-07T05:02:45.199Z,45.06
2018-04-07T05:03:45.876Z,45.00
2018-04-07T05:04:46.959Z,45.06
2018-04-07T05:05:47.009Z,45.08
2018-04-07T05:06:48.110Z,45.05
2018-04-07T05:07:47.974Z,45.10
2018-04-07T05:09:48.720Z,45.16
2018-04-07T05:11:49.466Z,45.20
2018-04-07T05:12:50.345Z,45.16
2018-04-07T05:13:50.668Z,45.19
2018-04-07T05:14:52.506Z,45.17
2018-04-07T05:16:51.836Z,45.15
2018-04-07T05:18:53.392Z,45.16
2018-04-07T05:21:54.813Z,45.10
2018-04-07T05:23:55.148Z,45.12
2018-04-07T05:27:57.248Z,45.16
2018-04-07T05:28:57.521Z,45.17
2018-04-07T05:29:58.201Z,45.19
2018-04-07T05:31:59.757Z,45.16
2018-04-07T05:34:00.099Z,45.12
2018-04-07T05:35:00.366Z,45.09
2018-04-07T05:36:01.047Z,45.05
2018-04-07T05:37:02.937Z,45.00
2018-04-07T05:42:04.503Z,45.08
2018-04-07T05:43:05.581Z,45.07
2018-04-07T05:44:04.636Z,45.09
2018-04-07T05:45:05.923Z,45.12
2018-04-07T05:48:06.738Z,45.06
2018-04-07T05:49:07.415Z,45.02
2018-04-07T05:50:12.906Z,44.98
2018-04-07T05:52:09.446Z,44.98
2018-04-07T05:53:15.180Z,44.96
2018-04-07T05:54:09.586Z,44.95
2018-04-07T05:55:09.857Z,44.94
2018-04-07T05:56:11.073Z,44.92
2018-04-07T05:59:11.958Z,44.90
2018-04-07T06:02:13.230Z,44.91
2018-04-07T06:07:15.942Z,45.47
2018-04-07T06:08:16.228Z,45.67
2018-04-07T06:09:17.101Z,45.90
2018-04-07T06:11:18.862Z,46.41
2018-04-07T06:15:19.344Z,47.42
2018-04-07T06:17:22.694Z,47.95
2018-04-07T06:20:22.107Z,48.78
2018-04-07T06:22:22.907Z,49.30
2018-04-07T06:24:23.989Z,49.71
2018-04-07T06:26:24.535Z,49.98
2018-04-07T06:29:26.348Z,50.19
2018-04-07T06:31:27.291Z,50.18
2018-04-07T06:35:28.768Z,49.87
2018-04-07T06:36:30.188Z,49.73
2018-04-07T06:37:29.912Z,49.65
2018-04-07T06:38:31.326Z,49.52
2018-04-07T06:40:31.327Z,49.32
2018-04-07T06:43:32.739Z,48.93
2018-04-07T06:46:34.495Z,48.43
2018-04-07T06:48:38.334Z,48.16
2018-04-07T06:51:36.719Z,47.84
2018-04-07T06:55:38.427Z,47.56
2018-04-07T06:56:51.612Z,47.49
2018-04-07T06:57:51.132Z,47.46
2018-04-07T07:01:41.445Z,47.21
2018-04-07T07:04:43.812Z,47.03
2018-04-07T07:05:43.339Z,46.97
2018-04-07T07:10:48.542Z,46.66
2018-04-07T07:11:49.306Z,46.64
2018-04-07T07:15:48.690Z,46.59
2018-04-07T07:18:53.587Z,46.57
